Time;durP1;ratioP1;P1;durP2;ratioP2;P2;SDS_P1;SDS_P2;PMS_P1;PMS_P2;Temp;Humidity;BMP_temperature;BMP_pressure;BME280_temperature;BME280_humidity;BME280_pressure;Samples;Min_cycle;Max_cycle;Signal;HPM_P1;HPM_P2
2023/04/16 00:02:17;;;;;;;12.32;7.78;;;307.40;2304.00;;;;;;5044695;28;20588;-72
2023/04/16 00:04:43;;;;;;;11.65;7.30;;;307.30;2304.00;;;;;;5030612;28;20143;-72
2023/04/16 00:07:09;;;;;;;11.35;7.70;;;307.30;2304.00;;;;;;5031622;28;20389;-73
2023/04/16 00:09:34;;;;;;;9.93;7.20;;;307.30;2304.00;;;;;;5023126;28;20022;-74
2023/04/16 00:12:02;;;;;;;11.65;7.10;;;307.20;2304.00;;;;;;5034879;28;20244;-74
2023/04/16 00:14:29;;;;;;;10.93;7.20;;;282.50;2278.40;;;;;;5036347;28;20025;-73
2023/04/16 00:16:54;;;;;;;12.20;7.55;;;307.30;2304.00;;;;;;5029560;28;20034;-73
2023/04/16 00:19:20;;;;;;;13.13;8.18;;;307.20;2304.00;;;;;;5034989;28;20028;-73
2023/04/16 00:21:46;;;;;;;10.55;7.38;;;282.50;2278.40;;;;;;5030847;28;20026;-72
2023/04/16 00:24:12;;;;;;;10.65;7.45;;;282.40;2278.40;;;;;;5034872;28;20017;-73
2023/04/16 00:26:37;;;;;;;;;;;282.30;2278.40;;;;;;5033516;28;20072;-72
2023/04/16 00:29:03;;;;;;;9.88;6.28;;;282.10;2278.40;;;;;;5034898;28;19912;-73
2023/04/16 00:31:30;;;;;;;11.65;7.00;;;282.10;2278.40;;;;;;5032463;28;20052;-73
2023/04/16 00:33:56;;;;;;;11.55;7.30;;;282.10;2278.40;;;;;;5029432;28;20095;-73
2023/04/16 00:36:23;;;;;;;12.40;8.20;;;282.10;2278.40;;;;;;5037582;28;20049;-73
2023/04/16 00:38:49;;;;;;;9.20;7.00;;;282.10;2278.40;;;;;;5029423;28;20026;-73
2023/04/16 00:41:15;;;;;;;11.73;6.57;;;282.10;2278.40;;;;;;5035836;28;20351;-73
2023/04/16 00:43:41;;;;;;;14.32;7.72;;;282.00;2278.40;;;;;;5032077;28;20025;-73
2023/04/16 00:46:07;;;;;;;10.48;7.70;;;281.90;2278.40;;;;;;5024223;28;20274;-73
2023/04/16 00:48:35;;;;;;;11.35;6.60;;;281.90;2278.40;;;;;;5034727;28;20497;-72
2023/04/16 00:51:03;;;;;;;14.98;7.50;;;281.70;2278.40;;;;;;5027408;28;20017;-72
2023/04/16 00:53:30;;;;;;;9.85;7.43;;;281.70;2278.40;;;;;;5032528;28;20036;-73
2023/04/16 00:55:56;;;;;;;13.57;7.82;;;281.70;2278.40;;;;;;5034505;28;20077;-72
2023/04/16 00:58:22;;;;;;;15.90;8.30;;;281.60;2278.40;;;;;;5031538;28;20108;-72
2023/04/16 01:00:49;;;;;;;10.93;7.70;;;256.90;2252.80;;;;;;5047130;28;20033;-72
2023/04/16 01:03:15;;;;;;;10.20;7.53;;;256.90;2252.80;;;;;;5035493;28;20029;-73
2023/04/16 01:05:40;;;;;;;12.68;9.02;;;256.90;2252.80;;;;;;5035074;28;20030;-72
2023/04/16 01:08:06;;;;;;;18.38;7.40;;;281.60;2278.40;;;;;;5029697;28;20037;-72
2023/04/16 01:10:32;;;;;;;12.48;8.18;;;256.80;2252.80;;;;;;5033029;28;20465;-75
2023/04/16 01:12:57;;;;;;;;;;;256.90;2252.80;;;;;;5032701;28;20567;-72
2023/04/16 01:15:23;;;;;;;;;;;256.80;2252.80;;;;;;5038529;28;20523;-72
2023/04/16 01:17:48;;;;;;;;;;;256.70;2252.80;;;;;;5040545;28;19962;-73
2023/04/16 01:20:14;;;;;;;;;;;256.80;2252.80;;;;;;5034714;28;19952;-72
2023/04/16 01:22:39;;;;;;;;;;;256.70;2252.80;;;;;;5038553;28;19905;-73
2023/04/16 01:25:05;;;;;;;;;;;256.70;2252.80;;;;;;5039334;28;20420;-73
2023/04/16 01:27:31;;;;;;;;;;;256.70;2252.80;;;;;;5041868;28;19976;-72
2023/04/16 01:29:56;;;;;;;;;;;256.70;2252.80;;;;;;5033622;28;20367;-73
2023/04/16 01:32:22;;;;;;;;;;;256.50;2252.80;;;;;;5038042;28;19917;-72
2023/04/16 01:34:48;;;;;;;;;;;256.50;2252.80;;;;;;5039975;28;19909;-73
2023/04/16 01:37:14;;;;;;;;;;;256.50;2252.80;;;;;;5021351;28;19948;-73
2023/04/16 01:39:40;;;;;;;;;;;256.40;2252.80;;;;;;5030549;28;19912;-74
2023/04/16 01:42:05;;;;;;;;;;;256.50;2252.80;;;;;;5035892;28;19905;-73
2023/04/16 01:44:31;;;;;;;;;;;256.40;2252.80;;;;;;5036548;28;19905;-73
2023/04/16 01:46:56;;;;;;;;;;;256.40;2252.80;;;;;;5035980;28;19920;-73
2023/04/16 01:49:22;;;;;;;;;;;256.40;2252.80;;;;;;5037075;28;19905;-73
2023/04/16 01:51:47;;;;;;;;;;;256.60;2252.80;;;;;;5036804;28;19905;-76
2023/04/16 01:54:13;;;;;;;;;;;256.60;2252.80;;;;;;5036742;28;19948;-75
2023/04/16 01:56:39;;;;;;;;;;;256.60;2252.80;;;;;;5036595;28;19909;-72
2023/04/16 01:59:04;;;;;;;;;;;256.80;2252.80;;;;;;5036353;28;19967;-74
2023/04/16 02:01:30;;;;;;;;;;;256.80;2252.80;;;;;;5036095;28;19916;-73
2023/04/16 02:03:56;;;;;;;;;;;256.80;2252.80;;;;;;5036459;28;19921;-74
2023/04/16 02:06:21;;;;;;;;;;;256.90;2252.80;;;;;;5036153;28;20289;-73
2023/04/16 02:08:47;;;;;;;;;;;256.90;2252.80;;;;;;5036568;28;19912;-73
2023/04/16 02:11:12;;;;;;;;;;;256.80;2252.80;;;;;;5036046;28;19909;-73
2023/04/16 02:13:38;;;;;;;;;;;256.80;2252.80;;;;;;5035842;28;20346;-74
2023/04/16 02:16:04;;;;;;;;;;;256.40;2252.80;;;;;;5034028;28;19909;-72
2023/04/16 02:18:29;;;;;;;;;;;256.20;2252.80;;;;;;5036046;28;19912;-73
2023/04/16 02:20:57;;;;;;;;;;;231.30;2252.80;;;;;;5036120;28;19912;-73
2023/04/16 02:23:22;;;;;;;;;;;256.10;2252.80;;;;;;5036135;28;19912;-73
2023/04/16 02:25:48;;;;;;;;;;;256.20;2252.80;;;;;;5036159;28;19909;-74
2023/04/16 02:28:15;;;;;;;;;;;256.10;2252.80;;;;;;5036221;28;19905;-73
2023/04/16 02:30:41;;;;;;;;;;;231.20;2252.80;;;;;;5035989;28;19908;-74
2023/04/16 02:33:07;;;;;;;;;;;231.10;2252.80;;;;;;5036206;28;19924;-73
2023/04/16 02:35:33;;;;;;;;;;;231.00;2252.80;;;;;;5036096;28;20242;-73
2023/04/16 02:37:59;;;;;;;;;;;230.90;2252.80;;;;;;5035561;28;19932;-73
2023/04/16 02:40:26;;;;;;;;;;;230.80;2252.80;;;;;;5035635;28;20345;-76
2023/04/16 02:42:52;;;;;;;;;;;230.70;2252.80;;;;;;5035548;28;19905;-72
2023/04/16 02:45:17;;;;;;;;;;;230.70;2252.80;;;;;;5035654;28;19905;-76
2023/04/16 02:47:43;;;;;;;;;;;230.70;2252.80;;;;;;5035430;28;20399;-72
2023/04/16 02:50:09;;;;;;;;;;;230.90;2252.80;;;;;;5035496;28;19909;-72
2023/04/16 02:52:35;;;;;;;;;;;231.00;2252.80;;;;;;5035308;28;19955;-73
2023/04/16 02:55:00;;;;;;;;;;;231.00;2252.80;;;;;;5035508;28;19957;-75
2023/04/16 02:57:26;;;;;;;;;;;231.10;2252.80;;;;;;5035373;28;19934;-72
2023/04/16 02:59:51;;;;;;;;;;;231.20;2252.80;;;;;;5035335;28;19905;-72
2023/04/16 03:02:17;;;;;;;;;;;231.30;2252.80;;;;;;5034935;28;19909;-75
2023/04/16 03:04:43;;;;;;;;;;;231.30;2252.80;;;;;;5035255;28;20373;-74
2023/04/16 03:07:08;;;;;;;;;;;231.10;2252.80;;;;;;5035205;28;19963;-74
2023/04/16 03:09:34;;;;;;;;;;;231.00;2252.80;;;;;;5035374;28;19905;-74
2023/04/16 03:12:01;;;;;;;;;;;231.00;2252.80;;;;;;5034905;28;20273;-74
2023/04/16 03:14:26;;;;;;;;;;;231.00;2252.80;;;;;;5035060;28;19909;-74
2023/04/16 03:16:52;;;;;;;;;;;230.90;2252.80;;;;;;5035095;28;19906;-73
2023/04/16 03:19:18;;;;;;;;;;;230.80;2252.80;;;;;;5034928;28;19905;-73
2023/04/16 03:21:43;;;;;;;;;;;230.70;2252.80;;;;;;5033690;28;19905;-73
2023/04/16 03:24:09;;;;;;;;;;;230.80;2252.80;;;;;;5034936;28;20016;-75
2023/04/16 03:26:34;;;;;;;;;;;230.90;2252.80;;;;;;5034745;28;20369;-73
2023/04/16 03:29:01;;;;;;;;;;;230.90;2252.80;;;;;;5034969;28;19906;-73
2023/04/16 03:31:26;;;;;;;;;;;230.90;2252.80;;;;;;5034436;28;19924;-73
2023/04/16 03:33:52;;;;;;;;;;;230.80;2252.80;;;;;;5034521;28;19917;-72
2023/04/16 03:36:18;;;;;;;;;;;230.80;2252.80;;;;;;5034463;28;19905;-73
2023/04/16 03:38:43;;;;;;;;;;;230.90;2252.80;;;;;;5034776;28;19905;-74
2023/04/16 03:41:09;;;;;;;;;;;231.20;2252.80;;;;;;5034378;28;19909;-72
2023/04/16 03:43:34;;;;;;;;;;;231.20;2252.80;;;;;;5034504;28;19909;-73
2023/04/16 03:46:00;;;;;;;;;;;231.00;2252.80;;;;;;5034331;28;20380;-75
2023/04/16 03:48:25;;;;;;;;;;;231.00;2252.80;;;;;;5021457;28;20384;-71
2023/04/16 03:50:51;;;;;;;;;;;231.00;2252.80;;;;;;5034364;28;19905;-72
2023/04/16 03:53:16;;;;;;;;;;;230.90;2252.80;;;;;;5034318;28;19913;-72
2023/04/16 03:55:42;;;;;;;;;;;230.90;2252.80;;;;;;5034478;28;20423;-72
2023/04/16 03:58:08;;;;;;;;;;;231.00;2252.80;;;;;;5034446;28;20277;-72
2023/04/16 04:00:33;;;;;;;;;;;231.00;2252.80;;;;;;5032300;28;20007;-77
2023/04/16 04:02:59;;;;;;;;;;;231.20;2252.80;;;;;;5034274;28;19913;-72
2023/04/16 04:05:24;;;;;;;;;;;231.10;2252.80;;;;;;5033685;28;20365;-75
2023/04/16 04:07:51;;;;;;;;;;;231.10;2252.80;;;;;;5034036;28;19991;-74
2023/04/16 04:10:16;;;;;;;;;;;231.00;2252.80;;;;;;5033654;28;20015;-72
2023/04/16 04:12:42;;;;;;;;;;;231.00;2252.80;;;;;;5033954;28;20038;-74
2023/04/16 04:15:08;;;;;;;;;;;231.20;2252.80;;;;;;5033992;28;19905;-72
2023/04/16 04:17:33;;;;;;;;;;;231.30;2252.80;;;;;;5033832;28;19912;-73
2023/04/16 04:19:59;;;;;;;;;;;231.30;2252.80;;;;;;5033818;28;20418;-76
2023/04/16 04:22:25;;;;;;;;;;;231.30;2252.80;;;;;;5033013;28;19909;-76
2023/04/16 04:24:50;;;;;;;;;;;231.30;2252.80;;;;;;5033971;28;19928;-72
2023/04/16 04:27:16;;;;;;;;;;;231.20;2252.80;;;;;;5033631;28;19909;-76
2023/04/16 04:29:41;;;;;;;;;;;231.10;2252.80;;;;;;5033225;28;20276;-76
2023/04/16 04:32:07;;;;;;;;;;;231.20;2252.80;;;;;;5032673;28;20008;-76
2023/04/16 04:34:32;;;;;;;;;;;231.30;2252.80;;;;;;5033065;28;20343;-71
2023/04/16 04:36:58;;;;;;;;;;;231.30;2252.80;;;;;;5032699;28;19905;-75
2023/04/16 04:39:23;;;;;;;;;;;256.20;2252.80;;;;;;5032327;28;19916;-72
2023/04/16 04:41:49;;;;;;;;;;;256.20;2252.80;;;;;;5031420;28;20265;-70
2023/04/16 04:44:15;;;;;;;;;;;256.10;2252.80;;;;;;5025505;28;19929;-72
2023/04/16 04:46:40;;;;;;;;;;;256.20;2252.80;;;;;;5034053;28;19912;-77
2023/04/16 04:49:06;;;;;;;;;;;256.30;2252.80;;;;;;5033074;28;19913;-73
2023/04/16 04:51:32;;;;;;;;;;;256.20;2252.80;;;;;;5029920;28;19906;-74
2023/04/16 04:53:58;;;;;;;;;;;256.30;2252.80;;;;;;5032550;28;20007;-71
2023/04/16 04:56:23;;;;;;;;;;;256.50;2252.80;;;;;;5028473;28;19951;-76
2023/04/16 04:58:49;;;;;;;;;;;256.50;2252.80;;;;;;5038943;28;19913;-74
2023/04/16 05:01:15;;;;;;;;;;;256.60;2252.80;;;;;;5035404;28;19949;-74
2023/04/16 05:03:40;;;;;;;;;;;256.50;2252.80;;;;;;5047341;28;20399;-75
2023/04/16 05:06:06;;;;;;;;;;;256.50;2252.80;;;;;;5033347;28;19962;-75
2023/04/16 05:08:32;;;;;;;;;;;256.50;2252.80;;;;;;5026724;28;19994;-76
2023/04/16 05:10:57;;;;;;;;;;;256.50;2252.80;;;;;;5034323;28;19911;-75
2023/04/16 05:13:23;;;;;;;;;;;256.70;2252.80;;;;;;5038579;28;19990;-73
2023/04/16 05:15:48;;;;;;;;;;;256.70;2252.80;;;;;;5038784;28;19917;-72
2023/04/16 05:18:14;;;;;;;;;;;256.60;2252.80;;;;;;5061782;28;20388;-72
2023/04/16 05:20:40;;;;;;;;;;;256.90;2252.80;;;;;;5021708;28;19905;-71
2023/04/16 05:23:06;;;;;;;;;;;256.90;2252.80;;;;;;5026177;28;20003;-73
2023/04/16 05:25:31;;;;;;;;;;;281.60;2278.40;;;;;;5025830;28;19906;-76
2023/04/16 05:27:57;;;;;;;;;;;281.60;2278.40;;;;;;5039963;28;19913;-78
2023/04/16 05:30:22;;;;;;;;;;;281.60;2278.40;;;;;;5020671;28;19906;-75
2023/04/16 05:32:48;;;;;;;;;;;281.60;2278.40;;;;;;5022263;28;21415;-72
2023/04/16 05:35:14;;;;;;;;;;;281.70;2278.40;;;;;;5026579;28;20352;-71
2023/04/16 05:37:39;;;;;;;;;;;281.80;2278.40;;;;;;5027289;28;20356;-70
2023/04/16 05:40:05;;;;;;;;;;;281.90;2278.40;;;;;;5027028;28;19905;-72
2023/04/16 05:42:31;;;;;;;;;;;282.00;2278.40;;;;;;5032119;28;19959;-71
2023/04/16 05:44:57;;;;;;;;;;;282.00;2278.40;;;;;;5029533;28;19913;-73
2023/04/16 05:47:23;;;;;;;;;;;282.10;2278.40;;;;;;5042402;28;19908;-72
2023/04/16 05:49:48;;;;;;;;;;;282.10;2278.40;;;;;;5021743;28;19913;-75
2023/04/16 05:52:14;;;;;;;;;;;282.20;2278.40;;;;;;5025112;28;19917;-74
2023/04/16 05:54:40;;;;;;;;;;;282.30;2278.40;;;;;;5043690;28;19913;-72
2023/04/16 05:57:05;;;;;;;;;;;282.30;2278.40;;;;;;5035904;28;19905;-73
2023/04/16 05:59:31;;;;;;;;;;;282.40;2278.40;;;;;;5039721;28;19905;-72
2023/04/16 06:01:57;;;;;;;;;;;282.50;2278.40;;;;;;5034934;28;19975;-73
2023/04/16 06:04:23;;;;;;;;;;;307.20;2304.00;;;;;;5033407;28;19913;-73
2023/04/16 06:06:48;;;;;;;;;;;307.30;2304.00;;;;;;5026840;28;19916;-73
2023/04/16 06:09:14;;;;;;;;;;;307.40;2304.00;;;;;;5028279;28;20345;-73
2023/04/16 06:11:39;;;;;;;;;;;307.40;2304.00;;;;;;5035661;28;19916;-72
2023/04/16 06:14:05;;;;;;;;;;;307.40;2304.00;;;;;;5046378;28;19966;-73
2023/04/16 06:16:31;;;;;;;;;;;307.40;2304.00;;;;;;5038318;28;19905;-76
2023/04/16 06:18:56;;;;;;;;;;;307.60;2304.00;;;;;;5028389;28;20683;-72
2023/04/16 06:21:22;;;;;;;;;;;307.60;2304.00;;;;;;5034936;28;19909;-73
2023/04/16 06:23:47;;;;;;;;;;;307.70;2304.00;;;;;;5026864;28;19909;-73
2023/04/16 06:26:13;;;;;;;;;;;307.80;2304.00;;;;;;5017760;28;20357;-73
2023/04/16 06:28:38;;;;;;;;;;;307.90;2304.00;;;;;;5037975;28;19952;-72
2023/04/16 06:31:04;;;;;;;;;;;307.90;2304.00;;;;;;5027347;28;19916;-72
2023/04/16 06:33:33;;;;;;;;;;;307.90;2304.00;;;;;;5033165;28;19917;-74
2023/04/16 06:35:58;;;;;;;;;;;307.90;2304.00;;;;;;5030615;28;19951;-72
2023/04/16 06:38:24;;;;;;;;;;;308.00;2304.00;;;;;;5030985;28;19913;-76
2023/04/16 06:40:49;;;;;;;;;;;308.10;2304.00;;;;;;5037836;28;19905;-71
2023/04/16 06:43:16;;;;;;;;;;;308.10;2304.00;;;;;;5035098;28;19909;-73
2023/04/16 06:45:42;;;;;;;;;;;332.90;2329.60;;;;;;5036294;28;19905;-72
2023/04/16 06:48:07;;;;;;;;;;;332.90;2329.60;;;;;;5030018;28;19912;-74
2023/04/16 06:50:33;;;;;;;;;;;332.90;2329.60;;;;;;5037009;28;19951;-72
2023/04/16 06:52:59;;;;;;;;;;;333.10;2329.60;;;;;;5033209;28;19917;-73
2023/04/16 06:55:24;;;;;;;;;;;333.10;2329.60;;;;;;5024844;28;19905;-72
2023/04/16 06:57:50;;;;;;;;;;;333.20;2329.60;;;;;;5041111;28;19920;-73
2023/04/16 07:00:15;;;;;;;;;;;333.20;2329.60;;;;;;5048418;28;19911;-73
2023/04/16 07:02:41;;;;;;;;;;;333.30;2329.60;;;;;;5025806;28;20349;-72
2023/04/16 07:05:07;;;;;;;;;;;333.40;2329.60;;;;;;5041123;28;19966;-72
2023/04/16 07:07:33;;;;;;;;;;;333.40;2329.60;;;;;;5033856;28;19905;-74
2023/04/16 07:09:59;;;;;;;;;;;333.50;2329.60;;;;;;5046017;28;19999;-71
2023/04/16 07:12:24;;;;;;;;;;;333.60;2329.60;;;;;;5029265;28;19923;-73
2023/04/16 07:14:50;;;;;;;;;;;333.70;2329.60;;;;;;5031889;28;19927;-73
2023/04/16 07:17:15;;;;;;;;;;;333.70;2329.60;;;;;;5031482;28;20340;-71
2023/04/16 07:19:41;;;;;;;;;;;358.40;2329.60;;;;;;5031796;28;19909;-71
2023/04/16 07:22:07;;;;;;;;;;;358.60;2329.60;;;;;;5029297;28;19905;-72
2023/04/16 07:24:32;;;;;;;;;;;358.70;2329.60;;;;;;5025548;28;20312;-74
2023/04/16 07:26:58;;;;;;;;;;;358.80;2329.60;;;;;;5047667;28;19948;-72
2023/04/16 07:29:23;;;;;;;;;;;358.90;2329.60;;;;;;5037208;28;19917;-71
2023/04/16 07:31:49;;;;;;;;;;;358.90;2329.60;;;;;;5033429;28;20445;-71
2023/04/16 07:34:15;;;;;;;;;;;358.90;2329.60;;;;;;5046176;28;19924;-71
2023/04/16 07:36:40;;;;;;;;;;;359.00;2329.60;;;;;;5028991;28;19951;-73
2023/04/16 07:39:06;;;;;;;;;;;359.00;2329.60;;;;;;5035376;28;19905;-73
2023/04/16 07:41:31;;;;;;;;;;;359.10;2329.60;;;;;;5039794;28;20265;-73
2023/04/16 07:43:57;;;;;;;;;;;359.20;2329.60;;;;;;5037540;28;19920;-71
2023/04/16 07:46:22;;;;;;;;;;;384.00;2329.60;;;;;;5039288;28;19905;-72
2023/04/16 07:48:48;;;;;;;;;;;384.10;2329.60;;;;;;5031402;28;19905;-72
2023/04/16 07:51:13;;;;;;;;;;;384.60;2329.60;;;;;;5025286;28;19914;-72
2023/04/16 07:53:39;;;;;;;;;;;384.70;2329.60;;;;;;5020295;28;19917;-73
2023/04/16 07:56:05;;;;;;;;;;;384.70;2329.60;;;;;;5032519;28;19916;-73
2023/04/16 07:58:31;;;;;;;;;;;384.90;2329.60;;;;;;5031755;28;19909;-74
2023/04/16 08:00:57;;;;;;;;;;;409.70;2355.20;;;;;;5029908;28;19913;-73
2023/04/16 08:03:22;;;;;;;;;;;409.80;2355.20;;;;;;5026482;28;19909;-73
2023/04/16 08:05:48;;;;;;;;;;;410.00;2355.20;;;;;;5038186;28;20353;-73
2023/04/16 08:08:14;;;;;;;;;;;410.20;2355.20;;;;;;5035206;28;19915;-74
2023/04/16 08:10:40;;;;;;;;;;;410.30;2355.20;;;;;;5038602;28;19963;-73
2023/04/16 08:13:05;;;;;;;;;;;410.30;2355.20;;;;;;5031351;28;19917;-73
2023/04/16 08:15:31;;;;;;;;;;;410.50;2355.20;;;;;;5032727;28;19909;-74
2023/04/16 08:17:56;;;;;;;;;;;435.30;2355.20;;;;;;5033905;28;19963;-73
2023/04/16 08:20:22;;;;;;;;;;;435.30;2355.20;;;;;;5029520;28;20324;-74
2023/04/16 08:22:48;;;;;;;;;;;435.40;2355.20;;;;;;5026263;28;20356;-76
2023/04/16 08:25:13;;;;;;;;;;;435.40;2355.20;;;;;;5029803;28;19951;-72
2023/04/16 08:27:39;;;;;;;;;;;435.40;2355.20;;;;;;5030260;28;19909;-72
2023/04/16 08:30:06;;;;;;;;;;;435.30;2355.20;;;;;;5032145;28;19990;-72
2023/04/16 08:32:32;;;;;;;;;;;435.30;2355.20;;;;;;5034871;28;20254;-74
2023/04/16 08:34:59;;;;;;;;;;;435.20;2355.20;;;;;;5029754;28;19921;-74
2023/04/16 08:37:24;;;;;;;;;;;435.30;2355.20;;;;;;5023944;28;19908;-75
2023/04/16 08:39:50;;;;;;;;;;;435.40;2355.20;;;;;;5038280;28;19992;-73
2023/04/16 08:42:30;;;;;;;;;;;435.50;2355.20;;;;;;5037112;28;19928;-74
2023/04/16 08:45:03;;;;;;;;;;;435.60;2355.20;;;;;;5035370;28;20360;-74
2023/04/16 08:47:31;;;;;;;;;;;435.70;2355.20;;;;;;5025494;28;20384;-72
2023/04/16 08:49:57;;;;;;;;;;;435.90;2355.20;;;;;;5035248;28;19905;-73
2023/04/16 08:52:24;;;;;;;;;;;436.10;2355.20;;;;;;5026348;28;19955;-75
2023/04/16 08:55:00;;;;;;;;;;;460.80;2380.80;;;;;;5058277;28;20343;-73
2023/04/16 08:57:28;;;;;;;;;;;460.80;2380.80;;;;;;5037070;28;20423;-74
2023/04/16 08:59:54;;;;;;;;;;;460.80;2380.80;;;;;;5031520;28;19909;-73
2023/04/16 09:02:20;;;;;;;;;;;460.90;2380.80;;;;;;5029312;28;19913;-74
2023/04/16 09:04:47;;;;;;;;;;;461.00;2176.00;;;;;;5022943;28;20262;-75
2023/04/16 09:07:13;;;;;;;;;;;461.10;2355.20;;;;;;5024453;28;19905;-74
2023/04/16 09:09:40;;;;;;;;;;;461.40;2176.00;;;;;;5033214;28;19905;-74
2023/04/16 09:12:06;;;;;;;;;;;461.20;2227.20;;;;;;5032406;28;19952;-74
2023/04/16 09:14:32;;;;;;;;;;;461.20;2304.00;;;;;;5033791;28;20007;-75
2023/04/16 09:17:00;;;;;;;;;;;461.10;2304.00;;;;;;5025988;28;19909;-74
2023/04/16 09:19:25;;;;;;;;;;;461.20;2355.20;;;;;;5017482;28;19912;-76
2023/04/16 09:21:51;;;;;;;;;;;461.20;2380.80;;;;;;5024996;28;20276;-74
2023/04/16 09:24:17;;;;;;;;;;;461.20;2380.80;;;;;;5033919;28;20285;-75
2023/04/16 09:26:43;;;;;;;;;;;461.20;2380.80;;;;;;5034533;28;19912;-76
2023/04/16 09:29:08;;;;;;;;;;;461.40;2380.80;;;;;;5041327;28;19905;-74
2023/04/16 09:31:34;;;;;;;;;;;461.60;2380.80;;;;;;5035954;28;19940;-76
2023/04/16 09:34:06;;;;;;;;;;;461.60;2380.80;;;;;;5033185;28;19999;-75
2023/04/16 09:36:32;;;;;;;;;;;461.60;2355.20;;;;;;5035888;28;20426;-74
2023/04/16 09:38:58;;;;;;;;;;;461.50;2380.80;;;;;;5030797;28;19913;-75
2023/04/16 09:41:38;;;;;;;;;;;461.60;2380.80;;;;;;5042176;28;19909;-76
2023/04/16 09:44:04;;;;;;;;;;;486.60;2329.60;;;;;;5036223;28;19905;-75
2023/04/16 09:46:36;;;;;;;;;;;486.80;2124.80;;;;;;5040777;28;20387;-76
2023/04/16 09:49:09;;;;;;;;;;;487.00;2048.00;;;;;;5037820;28;20311;-75
2023/04/16 09:51:40;;;;;;;;;;;487.00;1920.00;;;;;;5036052;28;19909;-75
2023/04/16 09:54:06;;;;;;;;;;;487.20;1920.00;;;;;;5035721;28;20016;-76
2023/04/16 09:56:31;;;;;;;;;;;487.30;1868.80;;;;;;5038977;28;19999;-75
2023/04/16 09:58:58;;;;;;;;;;;512.10;1817.60;;;;;;5036685;28;19905;-75
2023/04/16 10:01:24;;;;;;;;;;;512.00;1843.20;;;;;;5037097;28;19967;-75
2023/04/16 10:03:52;;;;;;;;;;;487.10;1920.00;;;;;;5033247;28;19960;-76
2023/04/16 10:06:19;;;;;;;;;;;487.00;2073.60;;;;;;5036936;28;20050;-74
2023/04/16 10:08:47;;;;;;;;;;;486.90;2227.20;;;;;;5027433;28;20003;-74
2023/04/16 10:11:16;;;;;;;;;;;486.80;2201.60;;;;;;5031329;28;19996;-77
2023/04/16 10:13:42;;;;;;;;;;;486.70;2022.40;;;;;;5033041;28;19982;-74
2023/04/16 10:16:08;;;;;;;;;;;486.70;2073.60;;;;;;5040051;28;20312;-74
2023/04/16 10:18:37;;;;;;;;;;;486.70;2099.20;;;;;;5038103;28;19904;-74
2023/04/16 10:21:04;;;;;;;;;;;486.70;2022.40;;;;;;5037188;28;19909;-75
2023/04/16 10:23:30;;;;;;;;;;;487.20;2124.80;;;;;;5031318;28;19916;-74
2023/04/16 10:25:57;;;;;;;;;;;512.20;1920.00;;;;;;5031743;28;19968;-73
2023/04/16 10:28:23;;;;;;;;;;;512.30;1843.20;;;;;;5041730;28;20426;-74
2023/04/16 10:30:52;;;;;;;;;;;512.00;1971.20;;;;;;5030753;28;20413;-74
2023/04/16 10:33:19;;;;;;;;;;;487.20;1894.40;;;;;;5038270;28;19948;-74
2023/04/16 10:35:45;;;;;;;;;;;487.20;1945.60;;;;;;5036987;28;20513;-76
2023/04/16 10:38:31;;;;;;;;;;;487.10;2022.40;;;;;;5039877;28;19906;-73
2023/04/16 10:40:57;;;;;;;;;;;487.10;2048.00;;;;;;5040879;28;19905;-73
2023/04/16 10:43:24;;;;;;;;;;;487.10;1920.00;;;;;;5036053;28;19905;-73
2023/04/16 10:45:49;;;;;;;;;;;487.10;1817.60;;;;;;5026767;28;19909;-73
2023/04/16 10:48:17;;;;;;;;;;;487.10;1817.60;;;;;;5019927;28;20055;-73
2023/04/16 10:50:52;;;;;;;;;;;487.10;1715.20;;;;;;5028095;28;19905;-72
2023/04/16 10:53:21;;;;;;;;;;;487.00;1689.60;;;;;;5039132;28;19913;-72
2023/04/16 10:56:03;;;;;;;;;;;487.00;1740.80;;;;;;5036441;28;19911;-72
2023/04/16 10:58:29;;;;;;;;;;;487.00;1792.00;;;;;;5032049;28;19905;-71
2023/04/16 11:00:57;;;;;;;;;;;487.00;1817.60;;;;;;5023114;28;19912;-74
2023/04/16 11:03:23;;;;;;;;;;;512.40;1715.20;;;;;;5035258;28;19913;-73
2023/04/16 11:05:48;;;;;;;;;;;512.50;1612.80;;;;;;5041661;28;20003;-74
2023/04/16 11:08:17;;;;;;;;;;;512.30;1587.20;;;;;;5030484;28;19905;-74
2023/04/16 11:10:43;;;;;;;;;;;512.40;1561.60;;;;;;5034701;28;19996;-74
2023/04/16 11:13:11;;;;;;;;;;;512.60;1612.80;;;;;;5038491;28;20043;-72
2023/04/16 11:15:37;;;;;;;;;;;537.60;1561.60;;;;;;5033564;28;19931;-73
2023/04/16 11:18:02;;;;;;;;;;;537.70;1561.60;;;;;;5029839;28;19909;-74
2023/04/16 11:20:28;;;;;;;;;;;538.10;1612.80;;;;;;5039540;28;19912;-72
2023/04/16 11:22:55;;;;;;;;;;;538.30;1561.60;;;;;;5035021;28;19905;-73
2023/04/16 11:25:21;;;;;;;;;;;563.40;1587.20;;;;;;5035073;28;19941;-74
2023/04/16 11:27:47;;;;;;;;;;;538.20;1536.00;;;;;;5037622;28;19954;-74
2023/04/16 11:30:13;;;;;;;;;;;563.40;1689.60;;;;;;5027364;28;19905;-74
2023/04/16 11:32:39;;;;;;;;;;;563.20;1664.00;;;;;;5031254;28;20372;-75
2023/04/16 11:35:12;;;;;;;;;;;538.50;1612.80;;;;;;5024832;28;19905;-75
2023/04/16 11:37:37;;;;;;;;;;;563.20;1612.80;;;;;;5034927;28;19920;-72
2023/04/16 11:40:05;;;;;;;;;;;563.20;1612.80;;;;;;5025123;28;20011;-74
2023/04/16 11:42:31;;;;;;;;;;;563.40;1612.80;;;;;;5028981;28;19988;-75
2023/04/16 11:44:59;;;;;;;;;;;563.20;1587.20;;;;;;5026433;28;19947;-75
2023/04/16 11:47:25;;;;;;;;;;;563.20;1612.80;;;;;;5039171;28;19915;-75
2023/04/16 11:49:51;;;;;;;;;;;563.50;1612.80;;;;;;5030747;28;19958;-74
2023/04/16 11:52:32;;;;;;;;;;;563.50;1561.60;;;;;;5027478;28;19913;-76
2023/04/16 11:54:58;;;;;;;;;;;563.40;1587.20;;;;;;5031397;28;19913;-73
2023/04/16 11:57:24;;;;;;;;;;;538.50;1664.00;;;;;;5027002;28;19912;-72
2023/04/16 11:59:50;;;;;;;;;;;538.50;1664.00;;;;;;5028175;28;19909;-74
2023/04/16 12:02:15;;;;;;;;;;;563.50;1664.00;;;;;;5031513;28;19908;-73
2023/04/16 12:04:41;;;;;;;;;;;563.60;1612.80;;;;;;5040612;28;20311;-74
2023/04/16 12:07:11;;;;;;;;;;;563.70;1612.80;;;;;;5027247;28;20357;-72
2023/04/16 12:09:38;;;;;;;;;;;563.60;1638.40;;;;;;5028290;28;19905;-73
2023/04/16 12:12:03;;;;;;;;;;;563.90;1612.80;;;;;;5027867;28;19910;-72
2023/04/16 12:14:29;;;;;;;;;;;564.10;1638.40;;;;;;5038577;28;20027;-71
2023/04/16 12:16:55;;;;;;;;;;;564.10;1587.20;;;;;;5027803;28;19928;-74
2023/04/16 12:19:21;;;;;;;;;;;564.10;1587.20;;;;;;5037946;28;19995;-70
2023/04/16 12:21:48;;;;;;;;;;;588.90;1664.00;;;;;;5030476;28;20352;-72
2023/04/16 12:24:15;;;;;;;;;;;564.10;1638.40;;;;;;5038936;28;19909;-75
2023/04/16 12:26:41;;;;;;;;;;;588.80;1587.20;;;;;;5036605;28;20447;-71
2023/04/16 12:29:16;;;;;;;;;;;588.90;1638.40;;;;;;5025943;28;19977;-72
2023/04/16 12:31:42;;;;;;;;;;;588.80;1612.80;;;;;;5024841;28;20372;-71
2023/04/16 12:34:09;;;;;;;;;;;564.10;1612.80;;;;;;5025572;28;19963;-72
2023/04/16 12:36:35;;;;;;;;;;;588.90;1587.20;;;;;;5031885;28;19905;-72
2023/04/16 12:39:00;;;;;;;;;;;588.80;1561.60;;;;;;5025507;28;19905;-73
2023/04/16 12:41:26;;;;;;;;;;;589.00;1612.80;;;;;;5040096;28;19905;-71
2023/04/16 12:43:51;;;;;;;;;;;588.90;1587.20;;;;;;5024058;28;19905;-72
2023/04/16 12:46:17;;;;;;;;;;;564.10;1561.60;;;;;;5033431;28;19905;-74
2023/04/16 12:48:42;;;;;;;;;;;564.10;1587.20;;;;;;5023507;28;20352;-72
2023/04/16 12:51:08;;;;;;;;;;;564.00;1612.80;;;;;;5031316;28;19904;-73
2023/04/16 12:53:34;;;;;;;;;;;564.10;1561.60;;;;;;5035387;28;20292;-71
2023/04/16 12:55:59;;;;;;;;;;;564.10;1510.40;;;;;;5038815;28;20261;-70
2023/04/16 12:58:25;;;;;;;;;;;563.90;1536.00;;;;;;5032516;28;20391;-76
2023/04/16 13:00:50;;;;;;;;;;;563.80;1561.60;;;;;;5032106;28;19909;-72
2023/04/16 13:03:16;;;;;;;;;;;563.80;1484.80;;;;;;5031766;28;19964;-72
2023/04/16 13:05:41;;;;;;;;;;;564.10;1510.40;;;;;;5043183;28;20369;-71
2023/04/16 13:08:07;;;;;;;;;;;564.10;1484.80;;;;;;5024237;28;19909;-73
2023/04/16 13:10:33;;;;;;;;;;;564.10;1536.00;;;;;;5032269;28;19906;-71
2023/04/16 13:12:59;;;;;;;;;;;564.10;1561.60;;;;;;5033352;28;19916;-71
2023/04/16 13:15:25;;;;;;;;;;;564.00;1536.00;;;;;;5039652;28;20287;-72
2023/04/16 13:17:50;;;;;;;;;;;564.10;1510.40;;;;;;5040801;28;19912;-70
2023/04/16 13:20:16;;;;;;;;;;;564.10;1433.60;;;;;;5033564;28;19916;-73
2023/04/16 13:22:42;;;;;;;;;;;564.00;1408.00;;;;;;5035600;28;19909;-72
2023/04/16 13:25:07;;;;;;;;;;;563.80;1459.20;;;;;;5038374;28;19905;-72
2023/04/16 13:27:33;;;;;;;;;;;564.00;1484.80;;;;;;5040114;28;20007;-72